Euskara    
Meteorología y climatología de Navarra
Datos de la estación - Meteo Navarra

Estación de Carcastillo (La Oliva) GN

Altitud 343 m.


Datos desde el 18/10/2020 hasta el 19/10/2020 en horario solar
Los datos son PROVISIONALES

Anterior Página 1 de 1 Siguiente Descargar: Formato para Excel 2000 o superior   Formato csv   Formato para OpenOffice Calc
Fecha Temperatura Humedad relativa Radiación global Insolación Precipitación Vel. viento 10 m Vel. viento 10 m Dir. viento 10 m
°C % W/m² s l/m² m/s km/h °
18/10/2020 0:00 3.4 90 0.0 0 0.0 0.9 3.2 129
18/10/2020 0:10 3.5 91 0.0 0 0.0 0.6 2.0 127
18/10/2020 0:20 3.4 91 0.0 0 0.0 0.0 0.0 0
18/10/2020 0:30 3.3 91 0.0 0 0.0 0.0 0.0 0
18/10/2020 0:40 3.0 91 0.0 0 0.0 0.0 0.0 0
18/10/2020 0:50 3.0 91 0.0 0 0.0 0.4 1.4 125
18/10/2020 1:00 3.0 92 0.0 0 0.0 0.6 2.2 127
18/10/2020 1:10 2.7 91 0.0 0 0.0 0.0 0.0 0
18/10/2020 1:20 2.6 91 0.0 0 0.0 0.0 0.0 0
18/10/2020 1:30 2.5 92 0.0 0 0.0 0.0 0.0 0
18/10/2020 1:40 2.5 93 0.0 0 0.0 0.0 0.0 0
18/10/2020 1:50 2.2 93 0.0 0 0.0 0.0 0.0 0
18/10/2020 2:00 2.2 94 0.0 0 0.0 0.0 0.0 0
18/10/2020 2:10 2.1 94 0.0 0 0.0 0.0 0.0 255
18/10/2020 2:20 1.9 93 0.0 0 0.0 0.0 0.0 255
18/10/2020 2:30 1.9 95 0.0 0 0.0 - - - - - -
18/10/2020 2:40 1.9 95 0.0 0 0.0 0.0 0.0 247
18/10/2020 2:50 1.8 95 0.0 0 0.0 0.0 0.0 247
18/10/2020 3:00 1.7 95 0.0 0 0.0 0.9 3.3 125
18/10/2020 3:10 1.5 95 0.0 0 0.0 0.5 1.6 135
18/10/2020 3:20 1.5 96 0.0 0 0.0 1.2 4.3 126
18/10/2020 3:30 1.6 98 0.0 0 0.0 1.5 5.2 127
18/10/2020 3:40 2.0 99 0.0 0 0.0 1.7 6.3 122
18/10/2020 3:50 2.1 99 0.0 0 0.0 1.2 4.4 128
18/10/2020 4:00 1.9 97 0.0 0 0.0 0.4 1.3 175
18/10/2020 4:10 1.8 97 0.0 0 0.0 0.4 1.3 191
18/10/2020 4:20 1.7 97 0.0 0 0.0 0.0 0.1 181
18/10/2020 4:30 1.5 97 0.0 0 0.0 0.9 3.2 7
18/10/2020 4:40 1.2 97 0.0 0 0.0 0.4 1.5 14
18/10/2020 4:50 1.1 97 0.0 0 0.0 0.5 1.8 247
18/10/2020 5:00 1.2 98 0.0 0 0.0 0.6 2.0 228
18/10/2020 5:10 1.3 99 0.0 0 0.0 0.3 1.0 226
18/10/2020 5:20 1.4 99 0.0 0 0.0 0.4 1.3 215
18/10/2020 5:30 1.4 99 0.0 0 0.0 0.2 0.6 215
18/10/2020 5:40 1.3 98 0.0 0 0.0 0.0 0.0 215
18/10/2020 5:50 1.1 98 0.0 0 0.0 0.2 0.8 31
18/10/2020 6:00 1.0 98 0.0 0 0.0 0.4 1.5 34
18/10/2020 6:10 1.0 98 0.0 0 0.0 0.3 1.2 221
18/10/2020 6:20 1.0 99 0.0 0 0.0 0.6 2.2 96
18/10/2020 6:30 0.8 99 0.0 0 0.0 0.5 1.7 120
18/10/2020 6:40 1.0 100 15.9 76 0.0 0.0 0.0 0
18/10/2020 6:50 1.1 100 40.8 600 0.0 0.0 0.0 0
18/10/2020 7:00 1.3 100 59.5 600 0.0 0.0 0.0 0
18/10/2020 7:10 1.8 100 78.1 600 0.0 0.0 0.0 0
18/10/2020 7:20 2.3 100 107.4 600 0.0 0.5 1.7 93
18/10/2020 7:30 3.0 100 138.3 600 0.0 0.8 2.9 96
18/10/2020 7:40 3.7 100 145.3 600 0.0 0.4 1.3 108
18/10/2020 7:50 4.7 100 175.5 600 0.0 1.9 6.7 100
18/10/2020 8:00 6.6 96 215.0 600 0.0 2.5 9.1 98
18/10/2020 8:10 7.7 86 247.4 600 0.0 2.9 10.4 100
18/10/2020 8:20 8.5 79 282.9 600 0.0 1.9 6.8 108
18/10/2020 8:30 9.4 75 325.8 600 0.0 2.3 8.3 99
18/10/2020 8:40 10.4 70 357.2 600 0.0 1.3 4.7 97
18/10/2020 8:50 10.6 71 293.5 572 0.0 0.3 1.2 34
18/10/2020 9:00 10.5 74 409.6 600 0.0 0.7 2.6 338
18/10/2020 9:10 10.4 73 392.3 600 0.0 0.3 1.0 355
18/10/2020 9:20 10.7 71 333.9 600 0.0 0.1 0.5 4
18/10/2020 9:30 11.2 69 303.4 600 0.0 0.1 0.4 82
18/10/2020 9:40 11.6 66 296.9 458 0.0 0.1 0.5 35
18/10/2020 9:50 12.0 64 533.7 600 0.0 0.2 0.8 328
18/10/2020 10:00 12.8 61 569.8 600 0.0 0.2 0.7 93
18/10/2020 10:10 13.6 57 595.7 600 0.0 0.5 1.7 61
18/10/2020 10:20 14.1 55 572.6 600 0.0 0.2 0.6 332
18/10/2020 10:30 13.9 55 458.4 514 0.0 0.1 0.2 270
18/10/2020 10:40 14.6 53 616.8 600 0.0 0.1 0.3 322
18/10/2020 10:50 15.0 52 627.5 600 0.0 0.5 1.8 280
18/10/2020 11:00 15.4 50 633.2 600 0.0 0.1 0.2 292
18/10/2020 11:10 15.8 49 639.9 600 0.0 0.1 0.2 230
18/10/2020 11:20 16.3 47 647.3 600 0.0 0.0 0.0 215
18/10/2020 11:30 16.6 46 650.8 600 0.0 0.0 0.0 0
18/10/2020 11:40 17.0 45 655.4 600 0.0 0.3 1.1 274
18/10/2020 11:50 17.0 45 665.2 600 0.0 0.1 0.4 247
18/10/2020 12:00 17.7 42 649.1 600 0.0 0.0 0.0 161
18/10/2020 12:10 17.8 41 654.3 600 0.0 0.0 0.1 320
18/10/2020 12:20 18.4 41 635.6 600 0.0 0.1 0.4 9
18/10/2020 12:30 18.6 39 609.5 600 0.0 0.1 0.4 272
18/10/2020 12:40 19.0 37 627.2 600 0.0 0.4 1.6 283
18/10/2020 12:50 19.2 37 631.2 600 0.0 0.1 0.2 291
18/10/2020 13:00 19.3 36 615.7 600 0.0 0.4 1.3 360
18/10/2020 13:10 19.4 36 621.8 600 0.0 0.5 1.8 283
18/10/2020 13:20 19.9 34 586.5 600 0.0 0.8 2.7 272
18/10/2020 13:30 20.1 33 580.9 600 0.0 0.6 2.2 282
18/10/2020 13:40 20.3 33 576.2 600 0.0 0.8 2.9 270
18/10/2020 13:50 20.1 32 493.1 600 0.0 0.8 3.0 289
18/10/2020 14:00 20.4 31 353.3 542 0.0 0.3 1.0 254
18/10/2020 14:10 20.4 32 266.8 282 0.0 0.1 0.3 269
18/10/2020 14:20 20.4 32 253.4 244 0.0 0.0 0.0 8
18/10/2020 14:30 20.0 32 235.2 136 0.0 0.0 0.1 295
18/10/2020 14:40 20.0 32 228.7 310 0.0 0.0 0.0 0
18/10/2020 14:50 20.1 33 233.4 420 0.0 0.0 0.0 0
18/10/2020 15:00 20.1 33 289.9 600 0.0 0.0 0.0 0
18/10/2020 15:10 20.4 32 275.7 600 0.0 0.0 0.0 0
18/10/2020 15:20 20.4 32 229.5 498 0.0 0.1 0.2 324
18/10/2020 15:30 20.2 32 149.7 142 0.0 0.0 0.0 0
18/10/2020 15:40 20.0 34 147.1 266 0.0 0.0 0.0 0
18/10/2020 15:50 19.9 35 121.1 4 0.0 0.0 0.0 0
18/10/2020 16:00 19.8 39 158.4 292 0.0 0.0 0.0 0
18/10/2020 16:10 19.9 35 206.9 600 0.0 0.0 0.0 0
18/10/2020 16:20 20.3 35 164.2 600 0.0 0.0 0.0 0
18/10/2020 16:30 20.2 35 126.7 600 0.0 0.0 0.0 58
18/10/2020 16:40 20.1 37 103.9 600 0.0 0.8 2.7 149
18/10/2020 16:50 19.8 37 74.7 600 0.0 0.6 2.0 162
18/10/2020 17:00 19.5 39 29.0 304 0.0 0.2 0.5 168
18/10/2020 17:10 18.9 41 0.0 0 0.0 0.6 2.2 151
18/10/2020 17:20 18.0 42 0.0 0 0.0 1.1 4.1 154
18/10/2020 17:30 17.1 43 0.0 0 0.0 1.5 5.3 140
18/10/2020 17:40 16.3 44 0.0 0 0.0 1.8 6.5 139
18/10/2020 17:50 15.7 45 0.0 0 0.0 1.4 5.0 142
18/10/2020 18:00 14.9 48 0.0 0 0.0 2.0 7.3 134
18/10/2020 18:10 14.6 48 0.0 0 0.0 2.2 7.9 132
18/10/2020 18:20 13.6 52 0.0 0 0.0 1.7 6.2 129
18/10/2020 18:30 13.1 54 0.0 0 0.0 2.0 7.0 127
18/10/2020 18:40 12.4 57 0.0 0 0.0 2.2 7.9 88
18/10/2020 18:50 11.8 58 0.0 0 0.0 2.8 9.9 99
18/10/2020 19:00 12.0 58 0.0 0 0.0 2.2 7.9 117
18/10/2020 19:10 11.7 60 0.0 0 0.0 2.1 7.5 111
18/10/2020 19:20 11.4 61 0.0 0 0.0 2.3 8.2 113
18/10/2020 19:30 11.0 62 0.0 0 0.0 2.5 8.8 117
18/10/2020 19:40 10.6 64 0.0 0 0.0 2.0 7.2 114
18/10/2020 19:50 10.2 65 0.0 0 0.0 2.5 8.9 103
18/10/2020 20:00 9.9 66 0.0 0 0.0 2.5 9.0 109
18/10/2020 20:10 9.4 67 0.0 0 0.0 2.4 8.7 114
18/10/2020 20:20 9.1 68 0.0 0 0.0 2.1 7.4 111
18/10/2020 20:30 8.9 69 0.0 0 0.0 2.7 9.8 104
18/10/2020 20:40 8.8 69 0.0 0 0.0 2.9 10.5 105
18/10/2020 20:50 8.5 69 0.0 0 0.0 2.1 7.6 120
18/10/2020 21:00 8.7 68 0.0 0 0.0 2.2 8.0 122
18/10/2020 21:10 9.0 68 0.0 0 0.0 2.8 9.9 115
18/10/2020 21:20 8.5 69 0.0 0 0.0 2.4 8.5 118
18/10/2020 21:30 8.0 71 0.0 0 0.0 2.3 8.2 117
18/10/2020 21:40 8.0 71 0.0 0 0.0 2.7 9.5 116
18/10/2020 21:50 7.9 71 0.0 0 0.0 3.0 10.8 117
18/10/2020 22:00 8.0 71 0.0 0 0.0 2.9 10.5 120
18/10/2020 22:10 8.2 70 0.0 0 0.0 3.1 11.3 121
18/10/2020 22:20 8.0 70 0.0 0 0.0 3.1 11.3 118
18/10/2020 22:30 7.4 72 0.0 0 0.0 3.0 10.9 121
18/10/2020 22:40 7.2 73 0.0 0 0.0 2.8 10.0 113
18/10/2020 22:50 7.0 75 0.0 0 0.0 2.8 10.1 109
18/10/2020 23:00 7.3 74 0.0 0 0.0 2.9 10.4 118
18/10/2020 23:10 7.7 73 0.0 0 0.0 3.0 10.7 114
18/10/2020 23:20 7.0 73 0.0 0 0.0 2.8 10.1 114
18/10/2020 23:30 6.8 75 0.0 0 0.0 2.7 9.8 117
18/10/2020 23:40 6.7 76 0.0 0 0.0 2.3 8.4 123
18/10/2020 23:50 6.5 77 0.0 0 0.0 2.8 9.9 121
Anterior Página 1 de 1 Siguiente

NOTA: Tipo de datos según el color:
   - Valores diarios o 10 minutos correctos
   - Valores diarios calculados a partir de un número de datos 10 minutos menor que 144 y mayor que 120, o de un número de datos semihorarios menor que 48 y mayor que 40 (caso de las estaciones de INTIA Y Ministerio)
   - Valores diez minutos estimados


Contacto        Enlaces        Aviso legal